Time;durP1;ratioP1;P1;durP2;ratioP2;P2;SDS_P1;SDS_P2;PMS_P1;PMS_P2;Temp;Humidity;BMP_temperature;BMP_pressure;BME280_temperature;BME280_humidity;BME280_pressure;Samples;Min_cycle;Max_cycle;Signal;HPM_P1;HPM_P2
2021/12/14 00:02:12;;;;;;;;;25.75;23.75;;;;;8.38;69.13;102300.22;4955874;28;45378;-45
2021/12/14 00:04:38;;;;;;;;;22.75;20.00;;;;;8.36;68.89;102291.41;4953863;28;46160;-44
2021/12/14 00:07:09;;;;;;;;;17.00;15.25;;;;;8.37;69.02;102298.44;4941939;28;45377;-45
2021/12/14 00:09:36;;;;;;;;;22.25;19.50;;;;;8.37;68.72;102311.53;4942637;28;45336;-43
2021/12/14 00:12:44;;;;;;;;;25.50;21.50;;;;;8.32;68.88;102318.41;4944014;28;45397;-43
2021/12/14 00:15:14;;;;;;;;;13.25;10.50;;;;;8.33;69.07;102320.19;4960017;28;46217;-44
2021/12/14 00:17:45;;;;;;;;;21.25;15.25;;;;;8.32;69.06;102300.09;4942964;28;45382;-44
2021/12/14 00:20:16;;;;;;;;;20.25;20.00;;;;;8.31;68.86;102308.78;4941296;28;45288;-44
2021/12/14 00:25:35;;;;;;;;;12.00;12.00;;;;;8.25;69.05;102293.84;4946471;28;45308;-44
2021/12/14 00:28:16;;;;;;;;;15.75;13.75;;;;;8.21;68.85;102292.00;4944366;28;45491;-44
2021/12/14 00:30:43;;;;;;;;;18.75;14.25;;;;;8.18;68.52;102278.84;4941344;28;45505;-48
2021/12/14 00:33:14;;;;;;;;;17.75;17.50;;;;;8.18;68.97;102277.97;4946034;28;45424;-45
2021/12/14 00:35:41;;;;;;;;;16.50;15.50;;;;;8.14;68.84;102295.38;4942209;28;45292;-44
2021/12/14 00:38:08;;;;;;;;;17.75;15.00;;;;;8.16;68.85;102305.88;4942369;28;45267;-46
2021/12/14 00:40:38;;;;;;;;;17.75;16.00;;;;;8.16;68.87;102304.13;4941170;28;45403;-47
2021/12/14 00:43:05;;;;;;;;;20.00;14.00;;;;;8.13;68.86;102288.34;4942326;28;45418;-45
2021/12/14 00:45:36;;;;;;;;;24.50;17.75;;;;;8.14;68.81;102285.75;4942266;28;45356;-45
2021/12/14 00:48:04;;;;;;;;;15.25;11.50;;;;;8.16;68.54;102288.41;4942082;28;45319;-45
2021/12/14 00:50:31;;;;;;;;;19.00;16.50;;;;;8.18;68.85;102293.69;4942161;28;45359;-44
2021/12/14 00:52:57;;;;;;;;;21.50;19.25;;;;;8.20;68.80;102295.50;4940623;28;45392;-43
2021/12/14 00:55:35;;;;;;;;;26.00;23.50;;;;;8.22;68.76;102299.00;4940496;28;48232;-46
2021/12/14 00:58:01;;;;;;;;;23.75;18.00;;;;;8.23;68.79;102295.53;4949666;28;45323;-46
2021/12/14 01:00:38;;;;;;;;;26.00;21.75;;;;;8.26;68.67;102289.47;4930134;28;45352;-45
2021/12/14 01:03:05;;;;;;;;;20.75;18.25;;;;;8.25;68.73;102283.38;4942300;28;45575;-45
2021/12/14 01:05:35;;;;;;;;;25.00;20.00;;;;;8.26;68.93;102282.53;4941647;28;46330;-45
2021/12/14 01:08:05;;;;;;;;;31.50;21.50;;;;;8.28;68.58;102287.78;4924711;28;45416;-44
2021/12/14 01:10:38;;;;;;;;;19.50;18.25;;;;;8.28;68.79;102293.03;4941644;28;45273;-44
2021/12/14 01:13:07;;;;;;;;;29.75;20.00;;;;;8.30;68.85;102296.53;4951455;28;45241;-44
2021/12/14 01:16:01;;;;;;;;;24.50;20.25;;;;;8.32;68.65;102296.59;4955754;28;46210;-44
2021/12/14 01:21:09;;;;;;;;;21.75;19.75;;;;;8.33;68.55;102308.81;4941742;28;45307;-44
2021/12/14 01:23:34;;;;;;;;;26.25;21.75;;;;;8.35;68.73;102308.03;4941763;28;45438;-44
2021/12/14 01:26:14;;;;;;;;;26.75;22.25;;;;;8.35;68.65;102302.78;4951093;28;45350;-44
2021/12/14 01:28:42;;;;;;;;;25.00;21.50;;;;;8.37;68.84;102319.38;4955796;28;45273;-48
2021/12/14 01:31:21;;;;;;;;;22.50;22.00;;;;;8.37;68.68;102322.00;4941702;28;45374;-44
2021/12/14 01:33:53;;;;;;;;;18.25;18.25;;;;;8.38;68.88;102329.03;4952631;28;45391;-47
2021/12/14 01:36:30;;;;;;;;;19.00;18.00;;;;;8.38;68.84;102344.75;4945963;28;45527;-45
2021/12/14 01:42:02;;;;;;;;;26.50;18.25;;;;;8.38;68.74;102328.16;4941679;28;45473;-44
2021/12/14 01:44:32;;;;;;;;;12.75;12.25;;;;;8.39;68.73;102351.75;4956795;28;45299;-44
2021/12/14 01:47:03;;;;;;;;;19.50;17.25;;;;;8.38;68.81;102349.97;4951414;28;45382;-47
2021/12/14 01:49:29;;;;;;;;;19.75;14.75;;;;;8.38;68.59;102357.84;4941273;28;45403;-45
2021/12/14 01:51:58;;;;;;;;;24.00;15.00;;;;;8.37;68.78;102361.31;4941454;28;45446;-45
2021/12/14 01:54:29;;;;;;;;;14.50;13.00;;;;;8.38;68.63;102357.84;4941188;28;45414;-43
2021/12/14 01:56:54;;;;;;;;;18.75;14.50;;;;;8.41;68.67;102362.25;4924501;28;46028;-44
2021/12/14 01:59:27;;;;;;;;;14.75;14.25;;;;;8.41;68.95;102351.78;4941178;28;45384;-43
2021/12/14 02:01:57;;;;;;;;;16.50;13.00;;;;;8.43;68.83;102366.69;4941675;28;45194;-47
2021/12/14 02:04:26;;;;;;;;;25.00;19.00;;;;;8.45;68.60;102364.97;4948113;28;45517;-44
2021/12/14 02:07:02;;;;;;;;;18.75;14.25;;;;;8.47;68.78;102369.41;4946452;28;46233;-43
2021/12/14 02:09:30;;;;;;;;;20.00;13.75;;;;;8.43;68.76;102364.06;4941040;28;45219;-45
2021/12/14 02:12:00;;;;;;;;;22.50;19.25;;;;;8.45;68.75;102369.31;4941550;28;45283;-46
2021/12/14 02:14:27;;;;;;;;;17.50;17.25;;;;;8.47;68.88;102379.88;4960627;28;45236;-47
2021/12/14 02:16:59;;;;;;;;;13.75;11.00;;;;;8.45;68.85;102385.03;4960272;28;45336;-47
2021/12/14 02:19:25;;;;;;;;;20.00;20.00;;;;;8.44;68.75;102401.63;4949802;28;45409;-45
2021/12/14 02:21:53;;;;;;;;;22.25;17.50;;;;;8.42;68.79;102401.59;4940860;28;45237;-44
2021/12/14 02:24:20;;;;;;;;;20.50;17.25;;;;;8.42;68.87;102417.31;4941094;28;45220;-43
2021/12/14 02:26:47;;;;;;;;;19.25;17.25;;;;;8.41;68.98;102423.38;4956403;28;47086;-45
2021/12/14 02:29:21;;;;;;;;;18.50;17.00;;;;;8.41;68.83;102414.66;4951446;28;45407;-43
2021/12/14 02:31:47;;;;;;;;;17.25;14.00;;;;;8.41;69.06;102401.56;4944206;28;45483;-45
2021/12/14 02:34:12;;;;;;;;;14.00;14.00;;;;;8.42;69.01;102396.34;4948054;28;45644;-43
2021/12/14 02:36:42;;;;;;;;;18.50;15.50;;;;;8.44;68.76;102389.41;4943938;28;45384;-43
2021/12/14 02:39:23;;;;;;;;;15.75;15.75;;;;;8.47;68.56;102369.41;4937972;28;45372;-46
2021/12/14 02:41:52;;;;;;;;;19.75;17.50;;;;;8.49;68.69;102371.22;4950900;28;45285;-43
2021/12/14 02:44:17;;;;;;;;;18.75;16.75;;;;;8.51;69.00;102359.00;4949999;28;45482;-46
2021/12/14 02:46:48;;;;;;;;;22.25;17.75;;;;;8.52;68.69;102339.81;4944134;28;45302;-46
2021/12/14 02:49:17;;;;;;;;;26.50;23.25;;;;;8.56;68.67;102340.75;4958383;28;45382;-47
2021/12/14 02:51:49;;;;;;;;;31.25;26.25;;;;;8.59;68.94;102340.81;4954999;28;45402;-44
2021/12/14 02:54:26;;;;;;;;;33.00;26.00;;;;;8.63;68.63;102342.66;4943952;28;45225;-44
2021/12/14 02:56:58;;;;;;;;;26.00;23.25;;;;;8.66;68.82;102349.69;4944097;28;46287;-45
2021/12/14 02:59:28;;;;;;;;;27.25;26.25;;;;;8.68;68.99;102367.22;4943784;28;45395;-43
2021/12/14 03:01:57;;;;;;;;;30.00;26.50;;;;;8.70;68.76;102354.13;4943789;28;45484;-43
2021/12/14 03:04:22;;;;;;;;;27.00;23.50;;;;;8.70;68.63;102352.38;4943418;28;45630;-48
2021/12/14 03:06:53;;;;;;;;;30.75;27.50;;;;;8.73;68.70;102362.94;4943417;28;45298;-44
2021/12/14 03:09:38;;;;;;;;;30.50;26.00;;;;;8.75;68.80;102368.19;4950604;28;45381;-44
2021/12/14 03:12:15;;;;;;;;;31.75;27.25;;;;;8.78;68.75;102355.19;4948370;28;45445;-45
2021/12/14 03:14:49;;;;;;;;;37.00;28.50;;;;;8.81;68.73;102343.88;4962988;28;45417;-44
2021/12/14 03:17:15;;;;;;;;;28.75;27.50;;;;;8.79;68.94;102333.31;4944201;28;45415;-44
2021/12/14 03:19:42;;;;;;;;;26.75;23.25;;;;;8.82;68.77;102338.63;4943493;28;45359;-44
2021/12/14 03:22:22;;;;;;;;;28.25;24.50;;;;;8.85;68.83;102338.69;4926315;28;45334;-45
2021/12/14 03:24:47;;;;;;;;;27.75;25.75;;;;;8.85;68.93;102332.56;4926146;28;45265;-46
2021/12/14 03:27:12;;;;;;;;;24.00;20.75;;;;;8.84;68.84;102315.97;4942171;28;48315;-43
2021/12/14 03:29:38;;;;;;;;;32.50;24.00;;;;;8.85;68.89;102317.72;4943697;28;45347;-45
2021/12/14 03:32:04;;;;;;;;;30.00;27.00;;;;;8.87;68.95;102317.75;4926488;28;45323;-45
2021/12/14 03:34:34;;;;;;;;;34.00;28.75;;;;;8.89;69.03;102323.91;4947634;28;45500;-46
2021/12/14 03:37:07;;;;;;;;;42.25;33.00;;;;;8.91;68.95;102322.19;4950004;28;46369;-44
2021/12/14 03:39:35;;;;;;;;;31.00;29.25;;;;;8.93;68.66;102318.75;4930861;28;45968;-47
2021/12/14 03:42:22;;;;;;;;;34.75;28.50;;;;;8.94;68.90;102311.75;4942282;28;45350;-46
2021/12/14 03:44:51;;;;;;;;;34.25;27.25;;;;;8.95;68.96;102324.00;4943165;28;45578;-44
2021/12/14 03:47:24;;;;;;;;;33.25;29.50;;;;;8.97;68.82;102314.44;4943251;28;45406;-43
2021/12/14 03:49:53;;;;;;;;;33.00;28.50;;;;;8.99;68.63;102314.47;4942844;28;45474;-46
2021/12/14 03:52:23;;;;;;;;;33.00;29.75;;;;;8.99;68.85;102317.94;4943431;28;45482;-44
2021/12/14 03:54:49;;;;;;;;;31.50;25.00;;;;;8.99;68.96;102311.84;4949760;28;45427;-44
2021/12/14 03:57:15;;;;;;;;;34.50;33.00;;;;;9.01;68.57;102320.63;4949000;28;46456;-45
2021/12/14 03:59:42;;;;;;;;;32.75;32.00;;;;;9.00;68.74;102311.84;4943071;28;45416;-47
2021/12/14 04:02:11;;;;;;;;;33.75;24.50;;;;;9.00;68.60;102317.09;4943171;28;45397;-46
2021/12/14 04:04:50;;;;;;;;;37.75;33.50;;;;;9.03;68.86;102327.66;4942983;28;45446;-46
2021/12/14 04:07:15;;;;;;;;;30.75;28.50;;;;;9.04;68.71;102321.56;4942716;28;46361;-47
2021/12/14 04:09:42;;;;;;;;;32.25;27.75;;;;;9.05;68.75;102310.19;4942480;28;45394;-46
2021/12/14 04:12:13;;;;;;;;;30.00;29.25;;;;;9.05;68.82;102310.19;4944865;28;45616;-44
2021/12/14 04:14:41;;;;;;;;;31.75;29.75;;;;;9.05;68.70;102314.56;4962282;28;45485;-46
2021/12/14 04:17:10;;;;;;;;;32.75;29.50;;;;;9.04;68.68;102304.94;4927789;28;47097;-46
2021/12/14 04:19:38;;;;;;;;;33.25;30.25;;;;;9.02;68.78;102291.81;4942748;28;45422;-45
2021/12/14 04:22:09;;;;;;;;;37.00;32.50;;;;;9.03;68.79;102297.91;4942763;28;45487;-46
2021/12/14 04:24:37;;;;;;;;;45.25;32.00;;;;;8.98;68.70;102295.25;4942594;28;45490;-46
2021/12/14 04:27:08;;;;;;;;;40.00;31.75;;;;;9.00;68.66;102290.88;4960448;28;47829;-46
2021/12/14 04:29:34;;;;;;;;;34.75;31.25;;;;;9.00;68.53;102290.88;4949756;28;45257;-48
2021/12/14 04:32:00;;;;;;;;;37.00;33.00;;;;;8.99;68.72;102291.72;4942412;28;45368;-43
2021/12/14 04:34:29;;;;;;;;;38.00;33.25;;;;;9.01;68.81;102302.28;4929421;28;45549;-47
2021/12/14 04:36:55;;;;;;;;;40.00;33.75;;;;;9.00;68.66;102317.09;4944063;28;47218;-45
2021/12/14 04:53:24;;;;;;;;;38.25;33.25;;;;;9.04;68.63;102331.16;4950795;28;45307;-43
2021/12/14 04:55:54;;;;;;;;;46.00;36.50;;;;;9.02;68.63;102325.88;4945644;28;45494;-43
2021/12/14 04:58:28;;;;;;;;;43.75;36.75;;;;;9.05;68.69;102330.31;4942379;28;45260;-43
2021/12/14 05:00:54;;;;;;;;;40.50;34.75;;;;;9.06;68.48;102329.44;4942134;28;45411;-43
2021/12/14 05:03:24;;;;;;;;;38.00;31.25;;;;;9.05;68.39;102310.19;4942345;28;45302;-46
2021/12/14 05:06:07;;;;;;;;;40.25;33.25;;;;;9.04;68.73;102324.19;4959857;28;45446;-44
2021/12/14 05:11:07;;;;;;;;;33.50;33.00;;;;;9.09;68.53;102332.13;4941681;28;45358;-43
2021/12/14 05:13:44;;;;;;;;;43.00;31.75;;;;;9.10;68.68;102326.03;4954061;28;45357;-44
2021/12/14 05:16:17;;;;;;;;;38.00;33.25;;;;;9.11;68.44;102333.03;4950702;28;45324;-46
2021/12/14 05:18:47;;;;;;;;;29.75;26.50;;;;;9.11;68.59;102328.66;4941861;28;45204;-43
2021/12/14 05:21:20;;;;;;;;;39.75;34.00;;;;;9.13;68.46;102335.69;4941505;28;45471;-44
2021/12/14 05:23:46;;;;;;;;;35.50;33.00;;;;;9.13;68.77;102331.31;4949112;28;45271;-43
2021/12/14 05:26:14;;;;;;;;;41.00;33.50;;;;;9.14;68.46;102326.97;4958719;28;45534;-43
2021/12/14 05:28:42;;;;;;;;;56.25;45.00;;;;;9.14;68.52;102327.81;4955746;28;45281;-47
2021/12/14 05:31:09;;;;;;;;;44.25;35.00;;;;;9.15;68.37;102332.22;4941723;28;45210;-46
2021/12/14 05:33:35;;;;;;;;;42.00;33.25;;;;;9.16;68.32;102333.13;4944988;28;45389;-45
2021/12/14 05:36:07;;;;;;;;;39.50;33.75;;;;;9.16;68.40;102333.13;4941637;28;45331;-44
2021/12/14 05:38:52;;;;;;;;;39.00;33.25;;;;;9.14;68.53;102317.34;4948662;28;46071;-47
2021/12/14 05:44:05;;;;;;;;;43.50;35.00;;;;;9.16;68.64;102328.75;4941804;28;45323;-44
2021/12/14 05:46:33;;;;;;;;;44.00;34.50;;;;;9.17;68.62;102329.63;4941446;28;45463;-44
2021/12/14 05:49:03;;;;;;;;;41.00;29.00;;;;;9.18;68.56;102324.44;4924282;28;48069;-46
2021/12/14 05:51:30;;;;;;;;;38.25;31.25;;;;;9.18;68.21;102331.41;4948214;28;45364;-42
2021/12/14 05:53:56;;;;;;;;;35.50;31.75;;;;;9.19;68.46;102328.78;4946951;28;45374;-47
2021/12/14 05:56:24;;;;;;;;;32.75;24.75;;;;;9.19;68.55;102328.78;4940145;28;45323;-46
2021/12/14 05:58:51;;;;;;;;;32.00;28.75;;;;;9.22;68.56;102335.81;4940008;28;46250;-45
2021/12/14 06:01:21;;;;;;;;;38.00;30.75;;;;;9.21;68.43;102336.72;4941390;28;45371;-44
2021/12/14 06:03:59;;;;;;;;;31.50;28.75;;;;;9.24;68.56;102340.28;4941563;28;45474;-44
2021/12/14 06:06:53;;;;;;;;;28.75;24.25;;;;;9.26;68.41;102340.28;4944541;28;45241;-43
2021/12/14 06:09:27;;;;;;;;;26.75;26.00;;;;;9.27;68.54;102342.06;4950459;28;45489;-45
2021/12/14 06:11:58;;;;;;;;;30.75;29.50;;;;;9.29;68.35;102349.94;4946949;28;45384;-48
2021/12/14 06:14:26;;;;;;;;;39.00;33.25;;;;;9.29;68.19;102361.31;4964345;28;45240;-44
2021/12/14 06:16:57;;;;;;;;;35.75;31.25;;;;;9.30;68.30;102354.34;4947747;28;45488;-44
2021/12/14 06:19:30;;;;;;;;;30.00;26.25;;;;;9.30;68.23;102356.97;4959267;28;46305;-46
2021/12/14 06:21:59;;;;;;;;;34.00;26.25;;;;;9.30;68.45;102360.47;4944196;28;45423;-44
2021/12/14 06:24:27;;;;;;;;;30.75;29.25;;;;;9.29;68.20;102377.06;4944469;28;45318;-43
2021/12/14 06:26:56;;;;;;;;;30.00;24.25;;;;;9.30;68.22;102378.81;4975806;28;45523;-43
2021/12/14 06:29:28;;;;;;;;;41.00;34.50;;;;;9.30;68.25;102389.31;4952590;28;45251;-42
2021/12/14 06:31:54;;;;;;;;;34.75;33.25;;;;;9.30;68.35;102386.69;4944108;28;45453;-43
2021/12/14 06:34:29;;;;;;;;;31.75;30.50;;;;;9.31;68.17;102385.84;4963055;28;45270;-46
2021/12/14 06:37:03;;;;;;;;;38.50;32.00;;;;;9.31;67.91;102377.97;4950424;28;45243;-45
2021/12/14 06:40:12;;;;;;;;;26.75;22.50;;;;;9.30;68.39;102386.69;4949153;28;47072;-44
2021/12/14 06:42:41;;;;;;;;;32.00;29.75;;;;;9.29;68.39;102387.53;4944057;28;45314;-44
2021/12/14 06:45:13;;;;;;;;;26.75;25.25;;;;;9.28;68.51;102385.78;4944316;28;45394;-46
2021/12/14 06:47:40;;;;;;;;;38.75;32.25;;;;;9.30;68.34;102388.44;4943986;28;45216;-48
2021/12/14 06:50:10;;;;;;;;;36.75;30.50;;;;;9.29;68.10;102384.91;4943721;28;46335;-45
2021/12/14 06:52:36;;;;;;;;;39.00;33.00;;;;;9.29;68.20;102405.03;4943886;28;45469;-46
2021/12/14 06:55:04;;;;;;;;;33.00;30.75;;;;;9.26;68.48;102401.50;4943904;28;45425;-45
2021/12/14 06:57:29;;;;;;;;;35.25;31.50;;;;;9.27;68.15;102408.50;4944002;28;45283;-45
2021/12/14 06:59:57;;;;;;;;;58.25;43.50;;;;;9.27;68.03;102405.88;4943780;28;45387;-46
2021/12/14 07:02:24;;;;;;;;;37.00;32.25;;;;;9.27;68.16;102405.88;4943822;28;45433;-45
2021/12/14 07:04:51;;;;;;;;;40.25;34.25;;;;;9.29;68.07;102402.41;4968573;28;45252;-45
2021/12/14 07:07:26;;;;;;;;;27.25;27.00;;;;;9.30;68.10;102404.19;4959430;28;45503;-45
2021/12/14 07:10:01;;;;;;;;;35.25;29.50;;;;;9.31;68.02;102413.81;4943291;28;45280;-44
2021/12/14 07:12:31;;;;;;;;;29.75;26.75;;;;;9.31;68.24;102408.56;4948042;28;45204;-44
2021/12/14 07:14:58;;;;;;;;;39.25;34.25;;;;;9.31;68.23;102412.09;4962506;28;45379;-46
2021/12/14 07:17:29;;;;;;;;;35.00;26.75;;;;;9.31;67.98;102411.19;4943626;28;45463;-44
2021/12/14 07:19:58;;;;;;;;;29.25;24.00;;;;;9.33;68.16;102414.72;4943212;28;45513;-46
2021/12/14 07:22:33;;;;;;;;;31.75;30.50;;;;;9.33;68.28;102409.47;4943538;28;45399;-45
2021/12/14 07:25:07;;;;;;;;;36.75;29.25;;;;;9.33;68.20;102412.09;4944839;28;45362;-46
2021/12/14 07:27:36;;;;;;;;;38.50;34.00;;;;;9.33;68.32;102414.72;4963027;28;45447;-45
2021/12/14 07:30:15;;;;;;;;;36.75;32.00;;;;;9.31;68.12;102401.59;4946770;28;45336;-45
2021/12/14 07:32:43;;;;;;;;;40.00;33.75;;;;;9.32;68.20;102403.34;4944656;28;45552;-50
2021/12/14 07:35:17;;;;;;;;;43.25;34.50;;;;;9.32;68.36;102403.34;4960597;28;45581;-49
2021/12/14 07:37:43;;;;;;;;;38.75;35.50;;;;;9.32;68.38;102407.69;4945299;28;45418;-49
2021/12/14 07:40:10;;;;;;;;;39.50;33.25;;;;;9.33;68.27;102415.59;4962329;28;46240;-49
2021/12/14 07:42:36;;;;;;;;;37.50;31.00;;;;;9.33;68.37;102414.72;4962804;28;45169;-47
2021/12/14 07:45:02;;;;;;;;;39.25;35.00;;;;;9.34;68.25;102422.63;4962861;28;45413;-48
2021/12/14 07:47:27;;;;;;;;;36.75;32.50;;;;;9.31;68.30;102414.72;4962733;28;45197;-48
2021/12/14 07:49:56;;;;;;;;;39.50;32.25;;;;;9.34;68.29;102427.88;4962248;28;46255;-48
2021/12/14 07:52:31;;;;;;;;;36.75;31.25;;;;;9.34;68.35;102427.88;4962394;28;45339;-48
2021/12/14 07:55:05;;;;;;;;;44.25;36.50;;;;;9.35;68.21;102432.25;4945055;28;45347;-46
2021/12/14 07:57:33;;;;;;;;;38.25;33.00;;;;;9.36;68.19;102433.16;4962416;28;45335;-49
2021/12/14 08:00:12;;;;;;;;;42.75;34.00;;;;;9.37;68.14;102437.53;4962431;28;46113;-46
2021/12/14 08:02:46;;;;;;;;;37.50;33.25;;;;;9.36;68.24;102435.78;4962306;28;45220;-46
2021/12/14 08:05:22;;;;;;;;;37.00;33.00;;;;;9.36;68.48;102439.28;4962158;28;45228;-45
2021/12/14 08:07:59;;;;;;;;;40.00;34.00;;;;;9.38;68.13;102441.94;4962256;28;45461;-46
2021/12/14 08:10:27;;;;;;;;;43.00;36.50;;;;;9.37;68.35;102442.78;4961864;28;45969;-48
2021/12/14 08:13:05;;;;;;;;;43.00;34.75;;;;;9.37;68.45;102446.31;4944652;28;45360;-50
2021/12/14 08:15:37;;;;;;;;;39.50;34.50;;;;;9.37;68.51;102448.94;4962228;28;45414;-44
2021/12/14 08:18:10;;;;;;;;;42.25;36.50;;;;;9.37;68.23;102469.91;4944878;28;45355;-46
2021/12/14 08:20:58;;;;;;;;;39.50;32.50;;;;;9.38;68.46;102471.69;4961750;28;47085;-46
2021/12/14 08:23:37;;;;;;;;;43.00;34.75;;;;;9.39;68.39;102473.44;4948293;28;45278;-47
2021/12/14 08:26:06;;;;;;;;;41.00;32.75;;;;;9.39;68.21;102483.94;4961780;28;45486;-46
2021/12/14 08:28:32;;;;;;;;;36.00;32.50;;;;;9.40;68.50;102480.47;4958959;28;45323;-47
2021/12/14 08:31:04;;;;;;;;;40.75;34.75;;;;;9.41;68.28;102483.97;4958073;28;46045;-46
2021/12/14 08:33:31;;;;;;;;;45.00;36.00;;;;;9.41;68.21;102476.97;4960977;28;45387;-47
2021/12/14 08:36:01;;;;;;;;;53.00;40.00;;;;;9.38;68.22;102471.69;4952729;28;45324;-46
2021/12/14 08:38:30;;;;;;;;;52.50;40.75;;;;;9.43;68.50;102479.63;4949245;28;45467;-48
2021/12/14 08:41:00;;;;;;;;;44.75;36.75;;;;;9.43;68.56;102477.91;4960646;28;46252;-46
2021/12/14 08:43:34;;;;;;;;;38.75;31.75;;;;;9.44;68.51;102471.78;4961657;28;45412;-49
2021/12/14 08:46:04;;;;;;;;;40.00;33.50;;;;;9.46;68.29;102482.31;4925120;28;45469;-50
2021/12/14 08:48:34;;;;;;;;;33.75;27.50;;;;;9.47;68.21;102475.31;4946148;28;45830;-46
2021/12/14 08:51:12;;;;;;;;;34.00;31.75;;;;;9.47;68.27;102477.94;4949718;28;45748;-47
2021/12/14 08:53:39;;;;;;;;;34.50;28.25;;;;;9.44;68.46;102471.78;4958868;28;45628;-48
2021/12/14 08:56:07;;;;;;;;;36.50;31.75;;;;;9.46;68.46;102482.31;4944317;28;45372;-48
2021/12/14 08:58:34;;;;;;;;;35.00;32.75;;;;;9.50;68.30;102499.88;4961218;28;45375;-47
2021/12/14 09:01:08;;;;;;;;;35.75;31.75;;;;;9.50;68.53;102502.50;4961316;28;46248;-48
2021/12/14 09:03:40;;;;;;;;;35.50;31.25;;;;;9.51;68.55;102512.16;4961283;28;45424;-47
2021/12/14 09:06:10;;;;;;;;;36.50;33.25;;;;;9.52;68.51;102499.91;4961205;28;45329;-49
2021/12/14 09:08:37;;;;;;;;;43.50;35.25;;;;;9.54;68.17;102498.19;4944027;28;45677;-48
2021/12/14 09:11:04;;;;;;;;;40.00;33.00;;;;;9.55;68.37;102498.22;4960982;28;46847;-45
2021/12/14 09:13:31;;;;;;;;;42.50;35.50;;;;;9.56;68.49;102486.00;4961181;28;45570;-46
2021/12/14 09:16:07;;;;;;;;;42.00;34.50;;;;;9.57;68.31;102482.50;4961240;28;45362;-48
2021/12/14 09:18:38;;;;;;;;;38.25;31.75;;;;;9.59;68.30;102486.91;4943694;28;45346;-48
2021/12/14 09:21:11;;;;;;;;;41.75;33.75;;;;;9.62;68.37;102482.59;4960936;28;46348;-48
2021/12/14 09:23:40;;;;;;;;;43.25;35.00;;;;;9.64;68.38;102488.75;4961277;28;45235;-49
2021/12/14 09:26:10;;;;;;;;;40.50;34.75;;;;;9.65;68.31;102488.78;4961040;28;45438;-46
2021/12/14 09:28:36;;;;;;;;;35.25;30.75;;;;;9.66;68.42;102487.94;4961644;28;45237;-47
2021/12/14 09:31:08;;;;;;;;;43.50;35.75;;;;;9.67;68.28;102489.69;4952079;28;46185;-46
2021/12/14 09:33:36;;;;;;;;;42.00;33.25;;;;;9.69;68.63;102487.09;4958653;28;45307;-48
2021/12/14 09:36:11;;;;;;;;;30.75;28.50;;;;;9.69;68.30;102487.09;4938730;28;45313;-46
2021/12/14 09:38:40;;;;;;;;;42.50;34.75;;;;;9.74;68.54;102490.69;4960262;28;45159;-47
2021/12/14 09:41:10;;;;;;;;;31.50;28.75;;;;;9.75;68.47;102493.31;4960024;28;46919;-50
2021/12/14 09:43:36;;;;;;;;;33.25;31.50;;;;;9.75;68.63;102493.31;4961008;28;45263;-46
2021/12/14 09:46:04;;;;;;;;;35.25;32.75;;;;;9.80;68.58;102500.38;4960869;28;45233;-46
2021/12/14 09:48:36;;;;;;;;;41.50;33.00;;;;;9.81;68.46;102496.91;4961032;28;45373;-46
2021/12/14 09:51:08;;;;;;;;;33.00;29.00;;;;;9.82;68.42;102499.56;4960416;28;45361;-46
2021/12/14 09:53:38;;;;;;;;;34.50;30.00;;;;;9.85;68.58;102510.13;4960587;28;45294;-46
2021/12/14 09:56:04;;;;;;;;;34.25;33.00;;;;;9.87;68.38;102511.06;4960900;28;45221;-46
2021/12/14 09:58:36;;;;;;;;;34.25;30.25;;;;;9.89;68.28;102517.19;4960674;28;45349;-48
2021/12/14 10:01:04;;;;;;;;;40.25;33.00;;;;;9.91;68.45;102523.38;4960761;28;46544;-47
2021/12/14 10:03:30;;;;;;;;;35.00;30.25;;;;;9.91;68.45;102514.59;4960553;28;45390;-49
2021/12/14 10:06:05;;;;;;;;;38.75;33.75;;;;;9.94;68.49;102517.28;4960519;28;45338;-45
2021/12/14 10:08:36;;;;;;;;;36.00;28.00;;;;;9.96;68.61;102520.81;4960769;28;45251;-48
2021/12/14 10:11:11;;;;;;;;;32.50;29.50;;;;;10.00;68.69;102520.00;4960181;28;46320;-46
2021/12/14 10:13:44;;;;;;;;;43.25;31.75;;;;;10.01;68.52;102516.53;4942930;28;45401;-46
2021/12/14 10:16:10;;;;;;;;;34.25;30.25;;;;;10.00;68.40;102513.84;4960741;28;45340;-47
2021/12/14 10:18:50;;;;;;;;;42.75;33.25;;;;;10.00;68.63;102512.13;4960278;28;45276;-45
2021/12/14 10:21:25;;;;;;;;;40.75;35.00;;;;;10.04;68.42;102519.19;4960190;28;46612;-46
2021/12/14 10:23:51;;;;;;;;;46.00;35.50;;;;;10.05;68.51;102513.09;4942852;28;45324;-48
2021/12/14 10:26:19;;;;;;;;;50.25;39.25;;;;;9.99;68.81;102501.59;4960405;28;45438;-48
2021/12/14 10:28:48;;;;;;;;;37.00;32.75;;;;;10.06;68.62;102516.59;4960506;28;45492;-48
2021/12/14 10:31:46;;;;;;;;;38.25;34.00;;;;;10.06;68.27;102514.84;4960300;28;47136;-46
2021/12/14 10:34:24;;;;;;;;;36.25;29.75;;;;;10.08;68.63;102520.13;4960093;28;45312;-48
2021/12/14 10:36:59;;;;;;;;;40.25;33.00;;;;;10.10;68.41;102523.69;4960481;28;45252;-47
2021/12/14 10:44:54;;;;;;;;;36.75;31.50;;;;;10.06;68.38;102517.50;4960409;28;45393;-49
2021/12/14 10:47:25;;;;;;;;;43.75;36.00;;;;;10.11;68.38;102527.19;4942783;28;45295;-46
2021/12/14 10:49:52;;;;;;;;;44.75;36.00;;;;;10.09;68.33;102525.41;4942771;28;45342;-45
2021/12/14 10:52:22;;;;;;;;;43.75;35.00;;;;;10.09;68.45;102529.78;4963152;28;46021;-47
2021/12/14 10:54:52;;;;;;;;;47.50;36.00;;;;;10.07;68.29;102531.50;4963516;28;45398;-46
2021/12/14 10:57:23;;;;;;;;;50.25;36.25;;;;;10.05;68.51;102528.84;4963403;28;45332;-48
2021/12/14 10:59:52;;;;;;;;;41.50;36.25;;;;;10.03;68.41;102529.69;4963568;28;45248;-45
2021/12/14 11:02:21;;;;;;;;;37.50;34.00;;;;;10.01;68.29;102529.66;4963173;28;47167;-46
2021/12/14 11:04:55;;;;;;;;;51.75;43.50;;;;;9.99;68.41;102528.75;4954827;28;45226;-47
2021/12/14 11:07:26;;;;;;;;;37.75;33.75;;;;;10.01;68.39;102527.03;4944763;28;45465;-46
2021/12/14 11:10:10;;;;;;;;;43.75;35.00;;;;;10.01;68.27;102528.75;4952787;28;45406;-48
2021/12/14 11:12:38;;;;;;;;;47.25;37.75;;;;;9.99;68.31;102525.25;4961470;28;46130;-49
2021/12/14 11:15:15;;;;;;;;;47.75;36.00;;;;;9.97;68.35;102519.06;4951415;28;45481;-47
2021/12/14 11:20:44;;;;;;;;;42.25;34.75;;;;;9.98;68.25;102510.34;4962494;28;45427;-47
2021/12/14 11:23:16;;;;;;;;;39.50;33.50;;;;;10.00;68.42;102511.22;4956461;28;45412;-46
2021/12/14 11:26:01;;;;;;;;;46.25;38.25;;;;;10.00;68.30;102519.09;4929949;28;45533;-46
2021/12/14 11:28:41;;;;;;;;;50.00;39.75;;;;;10.00;68.29;102509.50;4957625;28;45331;-48
2021/12/14 11:31:11;;;;;;;;;45.25;37.25;;;;;10.00;68.30;102517.38;4955198;28;45375;-48
2021/12/14 11:33:43;;;;;;;;;43.25;35.00;;;;;10.02;68.47;102523.53;4949866;28;46375;-49
2021/12/14 11:36:09;;;;;;;;;47.50;38.25;;;;;10.03;68.48;102519.19;4949766;28;45349;-44
2021/12/14 11:38:49;;;;;;;;;49.25;38.75;;;;;9.99;68.40;102507.72;4945051;28;46943;-48
2021/12/14 11:41:23;;;;;;;;;49.50;40.00;;;;;10.04;68.56;102508.69;4949659;28;45246;-46
2021/12/14 11:44:14;;;;;;;;;46.25;38.00;;;;;10.05;68.46;102502.59;4952852;28;46248;-47
2021/12/14 11:46:52;;;;;;;;;45.50;36.25;;;;;10.06;68.53;102499.09;4932539;28;45304;-48
2021/12/14 11:49:19;;;;;;;;;49.25;37.00;;;;;10.05;68.65;102494.69;4955957;28;45298;-46
2021/12/14 11:51:45;;;;;;;;;47.50;38.25;;;;;10.10;68.41;102492.16;4962231;28;45501;-49
2021/12/14 11:54:14;;;;;;;;;49.00;38.50;;;;;10.12;68.53;102495.66;4944620;28;47334;-45
2021/12/14 11:56:40;;;;;;;;;39.25;32.75;;;;;10.14;68.52;102487.81;4945068;28;45677;-47
2021/12/14 11:59:07;;;;;;;;;49.75;38.00;;;;;10.13;68.54;102484.31;4962197;28;45331;-46
2021/12/14 12:01:44;;;;;;;;;48.50;36.50;;;;;10.15;68.43;102486.94;4961003;28;45529;-47
2021/12/14 12:04:20;;;;;;;;;38.50;32.25;;;;;10.13;68.51;102486.94;4961774;28;46879;-46
2021/12/14 12:09:29;;;;;;;;;47.25;38.25;;;;;10.14;68.55;102488.72;4962133;28;45369;-47
2021/12/14 12:12:31;;;;;;;;;41.50;34.25;;;;;10.16;68.59;102484.38;4957400;28;45517;-46
2021/12/14 12:15:09;;;;;;;;;45.75;37.75;;;;;10.16;68.46;102472.97;4934839;28;45321;-51